createdAt,value
2022-10-13T00:01:22.452Z,73.46
2022-10-13T00:03:51.008Z,73.59
2022-10-13T00:06:26.438Z,73.60
2022-10-13T00:08:56.800Z,73.37
2022-10-13T00:11:27.571Z,73.52
2022-10-13T00:13:58.454Z,73.35
2022-10-13T00:16:27.885Z,73.33
2022-10-13T00:18:55.844Z,73.37
2022-10-13T00:21:26.321Z,73.50
2022-10-13T00:23:55.575Z,73.57
2022-10-13T00:26:25.447Z,73.28
2022-10-13T00:28:55.245Z,73.02
2022-10-13T00:31:26.786Z,73.02
2022-10-13T00:33:56.060Z,73.00
2022-10-13T00:36:24.833Z,74.07
2022-10-13T00:38:53.651Z,73.38
2022-10-13T00:41:22.209Z,72.46
2022-10-13T00:44:02.733Z,72.38
2022-10-13T00:46:36.403Z,72.43
2022-10-13T00:49:14.601Z,72.49
2022-10-13T00:51:50.750Z,72.69
2022-10-13T00:54:24.360Z,72.58
2022-10-13T00:56:54.234Z,72.58
2022-10-13T00:59:27.575Z,72.56
2022-10-13T01:01:59.678Z,72.64
2022-10-13T01:04:44.172Z,72.49
2022-10-13T01:07:15.170Z,72.50
2022-10-13T01:09:43.508Z,72.70
2022-10-13T01:12:24.787Z,72.69
2022-10-13T01:15:02.607Z,72.62
2022-10-13T01:17:36.479Z,72.61
2022-10-13T01:20:26.390Z,72.58
2022-10-13T01:23:15.541Z,72.61
2022-10-13T01:26:23.955Z,72.54
2022-10-13T01:29:12.161Z,72.55
2022-10-13T01:31:58.621Z,72.77
2022-10-13T01:34:32.816Z,72.59
2022-10-13T01:37:07.582Z,72.45
2022-10-13T01:39:43.441Z,72.62
2022-10-13T01:42:22.424Z,72.48
2022-10-13T01:45:01.860Z,72.66
2022-10-13T01:47:34.069Z,72.67
2022-10-13T01:50:03.376Z,72.74
2022-10-13T01:52:37.338Z,72.81
2022-10-13T01:55:11.960Z,72.73
2022-10-13T01:57:42.224Z,72.78
2022-10-13T02:00:12.148Z,72.71
2022-10-13T02:03:17.787Z,72.73
2022-10-13T02:05:55.075Z,72.82
2022-10-13T02:08:53.524Z,73.00
2022-10-13T02:11:22.951Z,73.00
2022-10-13T02:14:16.740Z,73.10
2022-10-13T02:16:47.204Z,73.23
2022-10-13T02:19:17.826Z,73.37
2022-10-13T02:21:47.281Z,73.47
2022-10-13T02:24:15.298Z,73.26
2022-10-13T02:26:43.746Z,73.09
2022-10-13T02:29:14.811Z,72.98
2022-10-13T02:31:44.992Z,72.85
2022-10-13T02:34:14.334Z,73.43
2022-10-13T02:36:42.624Z,74.39
2022-10-13T02:39:11.339Z,75.69
2022-10-13T02:41:39.607Z,72.85
2022-10-13T02:44:07.710Z,72.13
2022-10-13T02:46:37.317Z,71.38
2022-10-13T02:49:05.290Z,70.20
2022-10-13T02:51:36.285Z,69.53
2022-10-13T02:54:08.212Z,69.34
2022-10-13T02:56:36.097Z,68.33
2022-10-13T02:59:04.300Z,68.11
2022-10-13T03:01:33.367Z,67.85
2022-10-13T03:04:01.266Z,67.25
2022-10-13T03:06:29.344Z,66.14
2022-10-13T03:08:57.775Z,65.67
2022-10-13T03:11:25.889Z,65.96
2022-10-13T03:13:54.374Z,65.87
2022-10-13T03:16:22.624Z,66.08
2022-10-13T03:18:50.395Z,66.50
2022-10-13T03:21:18.239Z,67.01
2022-10-13T03:23:46.606Z,67.38
2022-10-13T03:26:15.760Z,68.10
2022-10-13T03:28:43.686Z,68.42
2022-10-13T03:31:12.916Z,69.35
2022-10-13T03:33:41.113Z,69.07
2022-10-13T03:36:09.328Z,69.13
2022-10-13T03:38:37.965Z,69.66
2022-10-13T03:41:07.821Z,70.29
2022-10-13T03:43:36.125Z,70.69
2022-10-13T03:46:06.788Z,71.31
2022-10-13T03:48:36.329Z,72.48
2022-10-13T03:51:16.424Z,72.70
2022-10-13T03:53:51.444Z,72.07
2022-10-13T03:56:22.949Z,71.46
2022-10-13T03:59:00.311Z,70.79
2022-10-13T04:01:30.482Z,70.32
2022-10-13T04:04:02.351Z,69.96
2022-10-13T04:06:31.865Z,69.14
2022-10-13T04:09:00.164Z,68.69
2022-10-13T04:11:28.153Z,68.51
2022-10-13T04:13:58.217Z,68.34
2022-10-13T04:16:29.979Z,68.23
2022-10-13T04:19:02.100Z,67.98
2022-10-13T04:21:34.272Z,67.88
2022-10-13T04:24:03.735Z,67.93
2022-10-13T04:26:34.679Z,68.04
2022-10-13T04:29:10.004Z,67.99
2022-10-13T04:31:40.518Z,67.87
2022-10-13T04:34:08.630Z,67.81
2022-10-13T04:36:36.676Z,67.78
2022-10-13T04:39:05.074Z,67.20
2022-10-13T04:41:34.452Z,67.28
2022-10-13T04:44:02.721Z,67.32
2022-10-13T04:46:30.996Z,67.41
2022-10-13T04:48:58.898Z,67.56
2022-10-13T04:51:30.640Z,68.06
2022-10-13T04:54:01.190Z,67.89
2022-10-13T04:56:29.451Z,68.12
2022-10-13T04:59:06.098Z,68.03
2022-10-13T05:01:36.045Z,67.98
2022-10-13T05:04:07.636Z,68.15
2022-10-13T05:06:58.802Z,68.16
2022-10-13T05:09:27.702Z,68.39
2022-10-13T05:11:55.577Z,68.28
2022-10-13T05:14:23.740Z,68.04
2022-10-13T05:16:51.949Z,68.06
2022-10-13T05:19:20.547Z,68.30
2022-10-13T05:21:50.651Z,68.31
2022-10-13T05:24:20.949Z,68.49
2022-10-13T05:26:50.615Z,68.77
2022-10-13T05:29:19.045Z,69.08
2022-10-13T05:31:47.413Z,69.55
2022-10-13T05:34:15.308Z,69.96
2022-10-13T05:36:43.479Z,70.24
2022-10-13T05:39:11.642Z,70.36
2022-10-13T05:41:39.617Z,70.57
2022-10-13T05:44:14.804Z,70.77
2022-10-13T05:46:54.397Z,70.85
2022-10-13T05:49:22.789Z,71.13
2022-10-13T05:51:55.300Z,71.12
2022-10-13T05:54:33.770Z,71.26
2022-10-13T05:57:08.940Z,71.21
2022-10-13T05:59:46.253Z,71.42
2022-10-13T06:02:17.190Z,71.67
2022-10-13T06:04:48.242Z,72.09
2022-10-13T06:07:17.056Z,72.18
2022-10-13T06:09:44.949Z,72.41
2022-10-13T06:12:13.221Z,72.38
2022-10-13T06:14:41.876Z,72.52
2022-10-13T06:17:12.897Z,72.46
2022-10-13T06:19:45.582Z,72.33
2022-10-13T06:22:13.417Z,72.24
2022-10-13T06:24:41.460Z,72.27
2022-10-13T06:27:11.161Z,72.62
2022-10-13T06:29:39.683Z,72.53
2022-10-13T06:32:07.521Z,72.65
2022-10-13T06:34:35.757Z,72.52
2022-10-13T06:37:03.943Z,72.95
2022-10-13T06:39:31.993Z,73.06
2022-10-13T06:42:02.261Z,72.73
2022-10-13T06:44:37.352Z,72.64
2022-10-13T06:47:05.937Z,71.52
2022-10-13T06:49:34.190Z,71.80
2022-10-13T06:52:02.606Z,71.81
2022-10-13T06:54:31.083Z,72.71
2022-10-13T06:56:58.898Z,72.57
2022-10-13T06:59:27.963Z,72.06
2022-10-13T07:01:56.377Z,71.70
2022-10-13T07:04:25.942Z,71.20
2022-10-13T07:06:56.133Z,71.35
2022-10-13T07:09:24.424Z,71.19
2022-10-13T07:11:52.492Z,70.53
2022-10-13T07:14:20.485Z,70.47
2022-10-13T07:16:49.515Z,69.84
2022-10-13T07:19:17.423Z,69.53
2022-10-13T07:21:45.493Z,69.39
2022-10-13T07:24:13.735Z,69.41
2022-10-13T07:26:41.848Z,68.88
2022-10-13T07:29:10.110Z,68.42
2022-10-13T07:31:38.751Z,68.02
2022-10-13T07:34:08.529Z,68.13
2022-10-13T07:36:37.934Z,68.17
2022-10-13T07:39:06.497Z,67.80
2022-10-13T07:41:36.939Z,68.17
2022-10-13T07:44:05.245Z,67.67
2022-10-13T07:46:39.135Z,66.96
2022-10-13T07:49:06.942Z,67.08
2022-10-13T07:51:35.075Z,67.04
2022-10-13T07:54:03.080Z,65.91
2022-10-13T07:56:36.135Z,65.60
2022-10-13T07:59:05.665Z,66.93
2022-10-13T08:01:33.767Z,66.60
2022-10-13T08:04:01.696Z,66.08
2022-10-13T08:06:29.980Z,65.52
2022-10-13T08:09:00.923Z,65.45
2022-10-13T08:11:29.149Z,65.84
2022-10-13T08:14:01.262Z,65.26
2022-10-13T08:16:31.131Z,65.87
2022-10-13T08:18:59.563Z,65.60
2022-10-13T08:21:53.264Z,65.59
2022-10-13T08:24:17.670Z,65.68
2022-10-13T08:26:46.771Z,66.42
2022-10-13T08:29:23.394Z,66.36
2022-10-13T08:31:53.929Z,66.33
2022-10-13T08:34:23.617Z,65.88
2022-10-13T08:36:54.732Z,65.22
2022-10-13T08:39:25.521Z,64.80
2022-10-13T08:41:56.673Z,64.70
2022-10-13T08:47:45.997Z,64.74
2022-10-13T08:50:18.303Z,64.12
2022-10-13T08:52:55.613Z,64.59
2022-10-13T08:55:40.492Z,64.14
2022-10-13T08:58:21.770Z,63.11
2022-10-13T09:01:10.264Z,63.90
2022-10-13T09:03:53.004Z,63.67
2022-10-13T09:06:29.050Z,63.74
2022-10-13T09:09:12.000Z,63.45
2022-10-13T09:11:46.476Z,62.75
2022-10-13T09:14:24.732Z,62.52
2022-10-13T09:16:58.234Z,62.22
2022-10-13T09:19:36.532Z,62.48
2022-10-13T09:22:34.051Z,61.94
2022-10-13T09:25:08.555Z,62.25
2022-10-13T09:27:55.091Z,62.12
2022-10-13T09:30:28.956Z,60.75
2022-10-13T09:33:09.715Z,60.75
2022-10-13T09:35:47.487Z,60.66
2022-10-13T09:38:15.794Z,59.74
2022-10-13T09:40:56.008Z,59.99
2022-10-13T09:43:38.303Z,60.29
2022-10-13T09:46:21.259Z,60.85
2022-10-13T09:48:52.324Z,60.78
2022-10-13T09:51:45.426Z,60.44
2022-10-13T09:54:35.037Z,59.89
2022-10-13T09:57:12.925Z,60.42
2022-10-13T09:59:47.423Z,59.07
2022-10-13T10:02:28.537Z,59.44
2022-10-13T10:05:01.539Z,60.16
2022-10-13T10:07:33.198Z,60.16
2022-10-13T10:10:06.567Z,59.99
2022-10-13T10:12:37.701Z,59.26
2022-10-13T10:15:20.349Z,58.32
2022-10-13T10:17:56.111Z,58.53
2022-10-13T10:20:39.468Z,58.83
2022-10-13T10:23:13.785Z,58.86
2022-10-13T10:25:45.929Z,58.40
2022-10-13T10:28:36.063Z,57.39
2022-10-13T10:31:18.636Z,57.66
2022-10-13T10:34:22.059Z,57.98
2022-10-13T10:37:08.554Z,58.79
2022-10-13T10:40:15.228Z,58.28
2022-10-13T10:42:48.425Z,57.83
2022-10-13T10:45:27.639Z,57.21
2022-10-13T10:48:00.910Z,57.36
2022-10-13T10:50:31.438Z,57.17
2022-10-13T10:53:16.398Z,57.33
2022-10-13T10:56:22.275Z,57.24
2022-10-13T10:59:25.434Z,57.10
2022-10-13T11:02:08.950Z,56.83
2022-10-13T11:04:43.124Z,56.81
2022-10-13T11:07:34.257Z,56.43
2022-10-13T11:10:26.448Z,56.68
2022-10-13T11:12:55.427Z,56.55
2022-10-13T11:15:29.206Z,56.72
2022-10-13T11:17:57.845Z,57.12
2022-10-13T11:20:25.964Z,57.24
2022-10-13T11:23:00.363Z,56.97
2022-10-13T11:25:45.049Z,57.34
2022-10-13T11:28:22.371Z,57.22
2022-10-13T11:30:51.111Z,56.92
2022-10-13T11:33:38.357Z,57.11
2022-10-13T11:36:32.890Z,56.72
2022-10-13T11:39:13.111Z,56.84
2022-10-13T11:42:26.145Z,56.99
2022-10-13T11:44:57.653Z,57.02
2022-10-13T11:47:44.442Z,56.77
2022-10-13T11:50:34.556Z,56.99
2022-10-13T11:53:05.399Z,56.64
2022-10-13T11:55:55.362Z,56.67
2022-10-13T11:58:42.602Z,55.92
2022-10-13T12:01:16.537Z,56.04
2022-10-13T12:03:46.871Z,56.07
2022-10-13T12:06:34.388Z,56.02
2022-10-13T12:09:07.506Z,56.22
2022-10-13T12:11:37.937Z,55.94
2022-10-13T12:17:24.070Z,55.79
2022-10-13T12:19:54.306Z,55.57
2022-10-13T12:22:22.452Z,55.74
2022-10-13T12:24:59.527Z,55.78
2022-10-13T12:27:29.619Z,56.18
2022-10-13T12:29:57.768Z,56.51
2022-10-13T12:32:28.783Z,56.50
2022-10-13T12:35:09.926Z,56.45
2022-10-13T12:37:38.477Z,56.43
2022-10-13T12:40:09.573Z,56.29
2022-10-13T12:42:38.454Z,55.91
2022-10-13T12:45:07.280Z,56.10
2022-10-13T12:47:44.675Z,56.42
2022-10-13T12:50:31.049Z,55.95
2022-10-13T12:53:04.996Z,56.21
2022-10-13T12:55:33.089Z,56.05
2022-10-13T12:58:03.211Z,56.17
2022-10-13T13:00:31.672Z,56.43
2022-10-13T13:03:01.190Z,56.76
2022-10-13T13:05:39.634Z,56.85
2022-10-13T13:08:32.069Z,56.63
2022-10-13T13:11:02.542Z,56.62
2022-10-13T13:13:31.156Z,56.20
2022-10-13T13:16:31.604Z,55.97
2022-10-13T13:18:59.711Z,56.48
2022-10-13T13:21:30.711Z,56.63
2022-10-13T13:23:59.470Z,56.68
2022-10-13T13:26:29.453Z,56.34
2022-10-13T13:28:57.475Z,56.44
2022-10-13T13:31:26.335Z,56.41
2022-10-13T13:33:54.286Z,56.62
2022-10-13T13:36:25.516Z,56.69
2022-10-13T13:38:55.085Z,56.40
2022-10-13T13:41:28.111Z,56.29
2022-10-13T13:44:00.248Z,56.63
2022-10-13T13:46:29.476Z,56.52
2022-10-13T13:48:57.582Z,55.92
2022-10-13T13:51:25.633Z,56.11
2022-10-13T13:53:53.699Z,55.80
2022-10-13T13:56:21.679Z,55.63
2022-10-13T13:58:49.777Z,55.62
2022-10-13T14:01:17.765Z,55.82
2022-10-13T14:03:45.713Z,56.02
2022-10-13T14:06:20.433Z,56.05
2022-10-13T14:08:51.340Z,55.89
2022-10-13T14:11:20.427Z,55.93
2022-10-13T14:13:49.053Z,56.10
2022-10-13T14:16:26.587Z,55.51
2022-10-13T14:18:59.446Z,55.81
2022-10-13T14:21:30.332Z,55.64
2022-10-13T14:24:02.032Z,55.67
2022-10-13T14:26:30.901Z,55.07
2022-10-13T14:28:58.738Z,53.61
2022-10-13T14:31:26.780Z,51.49
2022-10-13T14:33:55.145Z,49.86
2022-10-13T14:36:24.906Z,48.17
2022-10-13T14:38:53.330Z,47.06
2022-10-13T14:41:21.525Z,45.38
2022-10-13T14:43:54.788Z,44.61
2022-10-13T14:46:23.828Z,43.47
2022-10-13T14:48:51.819Z,43.97
2022-10-13T14:51:20.219Z,42.81
2022-10-13T14:53:48.553Z,42.77
2022-10-13T14:56:27.509Z,42.21
2022-10-13T14:59:00.179Z,43.20
2022-10-13T15:01:33.687Z,42.90
2022-10-13T15:04:02.192Z,42.92
2022-10-13T15:06:32.936Z,43.85
2022-10-13T15:09:01.032Z,44.14
2022-10-13T15:11:29.500Z,45.27
2022-10-13T15:13:57.498Z,46.13
2022-10-13T15:16:28.868Z,47.39
2022-10-13T15:18:57.312Z,48.56
2022-10-13T15:21:26.065Z,49.53
2022-10-13T15:23:54.036Z,50.45
2022-10-13T15:26:22.451Z,51.29
2022-10-13T15:28:52.673Z,51.99
2022-10-13T15:31:22.141Z,53.11
2022-10-13T15:33:52.987Z,53.55
2022-10-13T15:36:23.012Z,54.08
2022-10-13T15:38:53.918Z,54.87
2022-10-13T15:41:23.719Z,55.83
2022-10-13T15:43:51.677Z,56.55
2022-10-13T15:46:22.499Z,57.18
2022-10-13T15:48:53.597Z,58.01
2022-10-13T15:51:24.469Z,58.41
2022-10-13T15:53:52.451Z,59.07
2022-10-13T15:56:21.075Z,59.50
2022-10-13T15:58:49.305Z,59.91
2022-10-13T16:01:17.259Z,60.39
2022-10-13T16:03:45.543Z,60.66
2022-10-13T16:06:14.646Z,61.13
2022-10-13T16:08:45.561Z,61.59
2022-10-13T16:11:16.733Z,62.22
2022-10-13T16:13:49.671Z,63.25
2022-10-13T16:16:18.381Z,63.27
2022-10-13T16:18:46.974Z,62.98
2022-10-13T16:21:19.076Z,63.56
2022-10-13T16:23:48.255Z,63.42
2022-10-13T16:26:17.963Z,63.58
2022-10-13T16:28:48.258Z,63.44
2022-10-13T16:31:17.629Z,63.89
2022-10-13T16:33:46.347Z,63.82
2022-10-13T16:36:17.730Z,64.20
2022-10-13T16:38:47.514Z,64.65
2022-10-13T16:41:18.574Z,64.57
2022-10-13T16:43:48.103Z,64.76
2022-10-13T16:46:18.825Z,65.36
2022-10-13T16:48:48.210Z,65.38
2022-10-13T16:51:22.604Z,65.37
2022-10-13T16:53:57.656Z,65.95
2022-10-13T16:56:31.362Z,66.24
2022-10-13T16:59:02.104Z,66.18
2022-10-13T17:01:34.581Z,66.12
2022-10-13T17:04:03.664Z,66.32
2022-10-13T17:06:32.325Z,66.93
2022-10-13T17:09:03.443Z,67.09
2022-10-13T17:11:33.376Z,67.20
2022-10-13T17:14:01.984Z,67.46
2022-10-13T17:16:34.289Z,67.73
2022-10-13T17:19:02.923Z,68.01
2022-10-13T17:21:34.429Z,68.28
2022-10-13T17:24:02.372Z,68.77
2022-10-13T17:26:30.372Z,68.65
2022-10-13T17:28:58.754Z,68.95
2022-10-13T17:31:26.964Z,69.09
2022-10-13T17:33:55.046Z,69.36
2022-10-13T17:36:29.272Z,68.66
2022-10-13T17:39:04.388Z,69.28
2022-10-13T17:41:33.883Z,69.14
2022-10-13T17:44:02.619Z,69.17
2022-10-13T17:46:37.498Z,69.27
2022-10-13T17:49:10.107Z,69.53
2022-10-13T17:51:43.431Z,70.13
2022-10-13T17:54:15.942Z,70.50
2022-10-13T17:56:45.799Z,70.53
2022-10-13T17:59:15.790Z,70.49
2022-10-13T18:01:45.122Z,70.78
2022-10-13T18:04:25.306Z,70.34
2022-10-13T18:06:53.195Z,70.37
2022-10-13T18:09:24.332Z,70.35
2022-10-13T18:11:54.188Z,70.56
2022-10-13T18:14:24.811Z,70.13
2022-10-13T18:16:53.319Z,69.87
2022-10-13T18:19:22.276Z,69.82
2022-10-13T18:21:53.043Z,70.63
2022-10-13T18:24:24.882Z,70.51
2022-10-13T18:26:56.365Z,70.90
2022-10-13T18:29:24.879Z,70.90
2022-10-13T18:31:56.730Z,70.68
2022-10-13T18:34:24.995Z,70.73
2022-10-13T18:36:56.827Z,71.06
2022-10-13T18:39:27.939Z,71.29
2022-10-13T18:41:57.367Z,71.10
2022-10-13T18:44:32.721Z,70.86
2022-10-13T18:47:00.930Z,70.92
2022-10-13T18:49:31.906Z,71.24
2022-10-13T18:52:01.874Z,71.25
2022-10-13T18:54:30.982Z,71.02
2022-10-13T18:56:59.299Z,71.29
2022-10-13T18:59:27.368Z,71.27
2022-10-13T19:01:55.413Z,71.36
2022-10-13T19:04:24.113Z,71.85
2022-10-13T19:06:53.664Z,71.60
2022-10-13T19:09:21.742Z,72.12
2022-10-13T19:11:50.178Z,72.21
2022-10-13T19:14:19.483Z,72.09
2022-10-13T19:16:47.631Z,72.11
2022-10-13T19:19:15.625Z,72.04
2022-10-13T19:21:43.720Z,72.73
2022-10-13T19:24:12.409Z,72.44
2022-10-13T19:26:40.372Z,72.85
2022-10-13T19:29:11.897Z,72.92
2022-10-13T19:31:41.664Z,72.91
2022-10-13T19:34:12.571Z,72.27
2022-10-13T19:36:43.392Z,72.71
2022-10-13T19:39:21.477Z,73.29
2022-10-13T19:41:51.526Z,73.81
2022-10-13T19:44:21.081Z,73.54
2022-10-13T19:46:49.554Z,73.47
2022-10-13T19:49:20.750Z,73.29
2022-10-13T19:51:50.510Z,73.50
2022-10-13T19:54:20.146Z,73.48
2022-10-13T19:56:51.009Z,73.21
2022-10-13T19:59:19.108Z,73.32
2022-10-13T20:01:47.557Z,73.11
2022-10-13T20:04:18.714Z,73.26
2022-10-13T20:06:50.764Z,73.48
2022-10-13T20:09:20.011Z,73.52
2022-10-13T20:11:50.749Z,73.40
2022-10-13T20:14:19.241Z,73.43
2022-10-13T20:16:48.176Z,73.68
2022-10-13T20:19:19.490Z,73.67
2022-10-13T20:21:48.582Z,74.00
2022-10-13T20:24:16.721Z,74.05
2022-10-13T20:26:44.841Z,74.23
2022-10-13T20:29:12.992Z,74.32
2022-10-13T20:31:41.703Z,74.54
2022-10-13T20:34:10.958Z,74.71
2022-10-13T20:36:39.434Z,74.61
2022-10-13T20:39:09.257Z,74.73
2022-10-13T20:41:37.690Z,74.74
2022-10-13T20:44:06.589Z,74.88
2022-10-13T20:46:34.784Z,74.86
2022-10-13T20:49:13.127Z,74.78
2022-10-13T20:51:43.289Z,74.31
2022-10-13T20:54:14.281Z,74.85
2022-10-13T20:56:42.888Z,74.96
2022-10-13T20:59:15.132Z,74.86
2022-10-13T21:01:43.745Z,74.67
2022-10-13T21:04:12.434Z,74.90
2022-10-13T21:06:42.017Z,75.03
2022-10-13T21:09:10.835Z,75.21
2022-10-13T21:11:40.251Z,75.03
2022-10-13T21:14:09.900Z,74.87
2022-10-13T21:16:41.011Z,74.88
2022-10-13T21:19:12.934Z,74.75
2022-10-13T21:21:41.084Z,74.69
2022-10-13T21:24:10.550Z,74.67
2022-10-13T21:26:39.924Z,74.84
2022-10-13T21:29:16.262Z,74.67
2022-10-13T21:31:44.546Z,74.59
2022-10-13T21:34:12.567Z,74.57
2022-10-13T21:36:44.408Z,74.46
2022-10-13T21:39:14.722Z,74.06
2022-10-13T21:41:43.182Z,73.80
2022-10-13T21:44:14.160Z,73.84
2022-10-13T21:46:42.297Z,73.67
2022-10-13T21:49:10.641Z,73.84
2022-10-13T21:51:40.245Z,73.96
2022-10-13T21:54:11.884Z,73.91
2022-10-13T21:56:40.759Z,74.19
2022-10-13T21:59:10.353Z,74.25
2022-10-13T22:01:39.290Z,74.43
2022-10-13T22:04:14.347Z,74.43
2022-10-13T22:06:42.937Z,74.87
2022-10-13T22:09:11.497Z,74.76
2022-10-13T22:11:40.121Z,74.93
2022-10-13T22:14:12.634Z,74.63
2022-10-13T22:16:45.064Z,75.33
2022-10-13T22:19:15.121Z,75.84
2022-10-13T22:21:46.203Z,75.91
2022-10-13T22:24:18.787Z,75.77
2022-10-13T22:26:48.775Z,75.74
2022-10-13T22:29:20.452Z,75.55
2022-10-13T22:31:50.728Z,75.74
2022-10-13T22:34:19.095Z,75.67
2022-10-13T22:36:47.634Z,75.79
2022-10-13T22:39:16.099Z,75.50
2022-10-13T22:41:44.736Z,75.60
2022-10-13T22:44:13.767Z,75.61
2022-10-13T22:46:41.970Z,75.35
2022-10-13T22:49:14.965Z,75.30
2022-10-13T22:51:43.060Z,75.06
2022-10-13T22:54:12.550Z,75.11
2022-10-13T22:56:41.114Z,75.24
2022-10-13T22:59:12.137Z,75.50
2022-10-13T23:01:40.480Z,75.65
2022-10-13T23:04:09.114Z,75.69
2022-10-13T23:06:37.292Z,75.81
2022-10-13T23:09:10.881Z,76.15
2022-10-13T23:11:39.705Z,76.01
2022-10-13T23:14:09.219Z,76.07
2022-10-13T23:16:37.479Z,76.12
2022-10-13T23:19:05.683Z,75.67
2022-10-13T23:21:33.801Z,76.02
2022-10-13T23:24:06.625Z,75.94
2022-10-13T23:26:35.488Z,75.79
2022-10-13T23:29:05.043Z,75.38
2022-10-13T23:31:33.593Z,75.58
2022-10-13T23:34:02.068Z,75.95
2022-10-13T23:36:32.084Z,76.42
2022-10-13T23:39:03.834Z,76.04
2022-10-13T23:41:34.388Z,75.90
2022-10-13T23:44:02.588Z,76.78
2022-10-13T23:46:31.075Z,76.87
2022-10-13T23:48:59.241Z,77.18
2022-10-13T23:51:27.226Z,76.69
2022-10-13T23:53:55.590Z,77.11
2022-10-13T23:56:24.147Z,76.80
2022-10-13T23:58:51.952Z,76.64
